sensor_id;sensor_type;location;lat;lon;timestamp;pressure;altitude;pressure_sealevel;temperature;humidity
68456;BME280;55437;55.046;38.838;2023-02-04T00:01:23;99520.47;;;3.27;66.79
68456;BME280;55437;55.046;38.838;2023-02-04T00:03:51;99526.44;;;3.24;66.96
68456;BME280;55437;55.046;38.838;2023-02-04T00:06:16;99526.38;;;3.26;67.01
68456;BME280;55437;55.046;38.838;2023-02-04T00:08:42;99527.19;;;3.33;66.74
68456;BME280;55437;55.046;38.838;2023-02-04T00:11:08;99521.28;;;3.32;66.84
68456;BME280;55437;55.046;38.838;2023-02-04T00:13:34;99521.28;;;3.32;66.67
68456;BME280;55437;55.046;38.838;2023-02-04T00:16:00;99521.28;;;3.31;66.80
68456;BME280;55437;55.046;38.838;2023-02-04T00:18:25;99523.00;;;3.29;66.70
68456;BME280;55437;55.046;38.838;2023-02-04T00:20:51;99526.44;;;3.20;67.09
68456;BME280;55437;55.046;38.838;2023-02-04T00:23:17;99529.84;;;3.19;67.22
68456;BME280;55437;55.046;38.838;2023-02-04T00:25:42;99525.59;;;3.18;67.21
68456;BME280;55437;55.046;38.838;2023-02-04T00:28:08;99529.84;;;3.17;67.25
68456;BME280;55437;55.046;38.838;2023-02-04T00:30:33;99531.53;;;3.18;67.10
68456;BME280;55437;55.046;38.838;2023-02-04T00:33:00;99531.50;;;3.23;67.27
68456;BME280;55437;55.046;38.838;2023-02-04T00:35:26;99535.69;;;3.29;67.04
68456;BME280;55437;55.046;38.838;2023-02-04T00:37:52;99534.00;;;3.26;67.00
68456;BME280;55437;55.046;38.838;2023-02-04T00:40:18;99534.06;;;3.20;67.29
68456;BME280;55437;55.046;38.838;2023-02-04T00:42:43;99539.13;;;3.20;67.27
68456;BME280;55437;55.046;38.838;2023-02-04T00:45:10;99538.25;;;3.25;67.14
68456;BME280;55437;55.046;38.838;2023-02-04T00:47:37;99545.03;;;3.25;67.43
68456;BME280;55437;55.046;38.838;2023-02-04T00:50:03;99540.75;;;3.29;67.19
68456;BME280;55437;55.046;38.838;2023-02-04T00:52:28;99549.22;;;3.29;67.14
68456;BME280;55437;55.046;38.838;2023-02-04T00:54:54;99548.34;;;3.32;67.02
68456;BME280;55437;55.046;38.838;2023-02-04T00:57:20;99550.94;;;3.24;67.07
68456;BME280;55437;55.046;38.838;2023-02-04T00:59:46;99551.78;;;3.24;67.36
68456;BME280;55437;55.046;38.838;2023-02-04T01:02:12;99553.44;;;3.27;67.21
68456;BME280;55437;55.046;38.838;2023-02-04T01:04:37;99558.50;;;3.30;67.16
68456;BME280;55437;55.046;38.838;2023-02-04T01:07:03;99556.03;;;3.24;67.22
68456;BME280;55437;55.046;38.838;2023-02-04T01:09:29;99555.19;;;3.22;67.16
68456;BME280;55437;55.046;38.838;2023-02-04T01:11:55;99553.44;;;3.27;67.10
68456;BME280;55437;55.046;38.838;2023-02-04T01:14:21;99554.34;;;3.23;67.05
68456;BME280;55437;55.046;38.838;2023-02-04T01:16:47;99554.44;;;3.09;67.16
68456;BME280;55437;55.046;38.838;2023-02-04T01:19:12;99555.28;;;3.08;67.44
68456;BME280;55437;55.046;38.838;2023-02-04T01:21:38;99543.47;;;3.03;67.36
68456;BME280;55437;55.046;38.838;2023-02-04T01:24:04;99557.81;;;3.04;67.51
68456;BME280;55437;55.046;38.838;2023-02-04T01:26:29;99559.53;;;3.03;67.27
68456;BME280;55437;55.046;38.838;2023-02-04T01:28:55;99553.59;;;3.07;67.17
68456;BME280;55437;55.046;38.838;2023-02-04T01:31:23;99557.75;;;3.17;67.07
68456;BME280;55437;55.046;38.838;2023-02-04T01:33:49;99557.81;;;3.08;66.77
68456;BME280;55437;55.046;38.838;2023-02-04T01:36:14;99563.72;;;3.12;67.06
68456;BME280;55437;55.046;38.838;2023-02-04T01:38:49;99570.44;;;3.14;66.87
68456;BME280;55437;55.046;38.838;2023-02-04T01:41:16;99569.63;;;3.12;66.52
68456;BME280;55437;55.046;38.838;2023-02-04T01:43:43;99567.06;;;3.15;66.73
68456;BME280;55437;55.046;38.838;2023-02-04T01:46:10;99577.28;;;3.05;66.85
68456;BME280;55437;55.046;38.838;2023-02-04T01:48:36;99568.81;;;3.03;67.17
68456;BME280;55437;55.046;38.838;2023-02-04T01:51:07;99567.13;;;3.05;67.18
68456;BME280;55437;55.046;38.838;2023-02-04T01:53:34;99568.84;;;3.01;67.25
68456;BME280;55437;55.046;38.838;2023-02-04T01:56:01;99575.59;;;3.02;67.34
68456;BME280;55437;55.046;38.838;2023-02-04T01:58:29;99576.50;;;2.94;67.64
68456;BME280;55437;55.046;38.838;2023-02-04T02:00:56;99584.09;;;2.97;67.42
68456;BME280;55437;55.046;38.838;2023-02-04T02:03:22;99588.25;;;3.05;67.22
68456;BME280;55437;55.046;38.838;2023-02-04T02:05:52;99588.25;;;3.05;66.85
68456;BME280;55437;55.046;38.838;2023-02-04T02:08:18;99596.69;;;3.10;67.14
68456;BME280;55437;55.046;38.838;2023-02-04T02:10:46;99589.94;;;3.12;66.83
68456;BME280;55437;55.046;38.838;2023-02-04T02:13:17;99598.38;;;3.10;67.02
68456;BME280;55437;55.046;38.838;2023-02-04T02:15:44;99602.56;;;3.15;66.74
68456;BME280;55437;55.046;38.838;2023-02-04T02:18:11;99593.25;;;3.16;66.98
68456;BME280;55437;55.046;38.838;2023-02-04T02:20:37;99601.72;;;3.16;67.33
68456;BME280;55437;55.046;38.838;2023-02-04T02:25:44;99599.09;;;3.29;66.51
68456;BME280;55437;55.046;38.838;2023-02-04T02:28:13;99601.69;;;3.25;66.47
68456;BME280;55437;55.046;38.838;2023-02-04T02:30:40;99604.19;;;3.29;66.33
68456;BME280;55437;55.046;38.838;2023-02-04T02:33:10;99613.50;;;3.26;66.50
68456;BME280;55437;55.046;38.838;2023-02-04T02:35:39;99606.72;;;3.30;66.42
68456;BME280;55437;55.046;38.838;2023-02-04T02:38:09;99605.00;;;3.35;66.55
68456;BME280;55437;55.046;38.838;2023-02-04T02:40:36;99611.75;;;3.38;66.34
68456;BME280;55437;55.046;38.838;2023-02-04T02:43:03;99607.53;;;3.35;66.45
68456;BME280;55437;55.046;38.838;2023-02-04T02:45:31;99612.56;;;3.41;66.41
68456;BME280;55437;55.046;38.838;2023-02-04T02:47:58;99611.69;;;3.48;66.29
68456;BME280;55437;55.046;38.838;2023-02-04T02:50:26;99618.41;;;3.51;66.13
68456;BME280;55437;55.046;38.838;2023-02-04T02:52:53;99618.38;;;3.57;66.14
68456;BME280;55437;55.046;38.838;2023-02-04T02:55:22;99617.53;;;3.58;66.04
68456;BME280;55437;55.046;38.838;2023-02-04T02:57:50;99617.53;;;3.56;65.93
68456;BME280;55437;55.046;38.838;2023-02-04T03:05:32;99620.06;;;3.59;65.90
68456;BME280;55437;55.046;38.838;2023-02-04T03:08:01;99618.38;;;3.57;65.89
68456;BME280;55437;55.046;38.838;2023-02-04T03:10:28;99619.25;;;3.54;66.14
68456;BME280;55437;55.046;38.838;2023-02-04T03:12:54;99617.53;;;3.56;66.10
68456;BME280;55437;55.046;38.838;2023-02-04T03:15:20;99621.75;;;3.60;65.86
68456;BME280;55437;55.046;38.838;2023-02-04T03:17:45;99624.28;;;3.60;65.87
68456;BME280;55437;55.046;38.838;2023-02-04T03:20:13;99628.44;;;3.68;65.93
68456;BME280;55437;55.046;38.838;2023-02-04T03:22:40;99635.19;;;3.72;65.58
68456;BME280;55437;55.046;38.838;2023-02-04T03:25:06;99636.84;;;3.76;65.70
68456;BME280;55437;55.046;38.838;2023-02-04T03:27:32;99640.22;;;3.76;65.49
68456;BME280;55437;55.046;38.838;2023-02-04T03:29:58;99638.59;;;3.71;65.37
68456;BME280;55437;55.046;38.838;2023-02-04T03:32:24;99635.19;;;3.72;65.54
68456;BME280;55437;55.046;38.838;2023-02-04T03:34:50;99629.31;;;3.65;65.42
68456;BME280;55437;55.046;38.838;2023-02-04T03:37:15;99634.41;;;3.63;65.47
68456;BME280;55437;55.046;38.838;2023-02-04T03:39:41;99636.16;;;3.58;65.76
68456;BME280;55437;55.046;38.838;2023-02-04T03:42:07;99637.84;;;3.55;65.66
68456;BME280;55437;55.046;38.838;2023-02-04T03:44:32;99639.53;;;3.56;65.54
68456;BME280;55437;55.046;38.838;2023-02-04T03:46:58;99640.38;;;3.58;65.53
68456;BME280;55437;55.046;38.838;2023-02-04T03:49:24;99640.38;;;3.55;65.58
68456;BME280;55437;55.046;38.838;2023-02-04T03:51:50;99636.16;;;3.52;65.66
68456;BME280;55437;55.046;38.838;2023-02-04T03:54:16;99633.63;;;3.51;65.69
68456;BME280;55437;55.046;38.838;2023-02-04T03:56:42;99637.06;;;3.45;65.90
68456;BME280;55437;55.046;38.838;2023-02-04T03:59:10;99650.63;;;3.41;65.91
68456;BME280;55437;55.046;38.838;2023-02-04T04:01:36;99644.75;;;3.36;65.69
68456;BME280;55437;55.046;38.838;2023-02-04T04:04:02;99646.47;;;3.28;66.10
68456;BME280;55437;55.046;38.838;2023-02-04T04:06:27;99644.84;;;3.15;66.33
68456;BME280;55437;55.046;38.838;2023-02-04T04:08:53;99644.88;;;3.10;66.30
68456;BME280;55437;55.046;38.838;2023-02-04T04:11:19;99649.13;;;3.04;66.55
68456;BME280;55437;55.046;38.838;2023-02-04T04:13:46;99646.59;;;3.04;66.43
68456;BME280;55437;55.046;38.838;2023-02-04T04:16:12;99648.28;;;3.05;66.30
68456;BME280;55437;55.046;38.838;2023-02-04T04:18:37;99651.66;;;3.07;66.35
68456;BME280;55437;55.046;38.838;2023-02-04T04:21:03;99654.19;;;3.04;66.22
68456;BME280;55437;55.046;38.838;2023-02-04T04:23:29;99665.22;;;3.01;66.35
68456;BME280;55437;55.046;38.838;2023-02-04T04:25:54;99669.47;;;2.92;66.51
68456;BME280;55437;55.046;38.838;2023-02-04T04:28:20;99671.19;;;2.86;66.55
68456;BME280;55437;55.046;38.838;2023-02-04T04:30:46;99683.88;;;2.83;66.28
68456;BME280;55437;55.046;38.838;2023-02-04T04:33:19;99682.22;;;2.76;66.63
68456;BME280;55437;55.046;38.838;2023-02-04T04:35:45;99684.75;;;2.70;67.04
68456;BME280;55437;55.046;38.838;2023-02-04T04:38:10;99687.28;;;2.70;67.03
68456;BME280;55437;55.046;38.838;2023-02-04T04:40:36;99693.19;;;2.78;67.11
68456;BME280;55437;55.046;38.838;2023-02-04T04:43:02;99697.41;;;2.84;67.22
68456;BME280;55437;55.046;38.838;2023-02-04T04:45:28;99698.25;;;2.83;67.04
68456;BME280;55437;55.046;38.838;2023-02-04T04:47:53;99699.09;;;2.79;67.24
68456;BME280;55437;55.046;38.838;2023-02-04T04:50:23;99704.16;;;2.86;67.57
68456;BME280;55437;55.046;38.838;2023-02-04T04:52:48;99702.44;;;2.92;67.17
68456;BME280;55437;55.046;38.838;2023-02-04T04:55:24;99710.03;;;2.96;67.02
68456;BME280;55437;55.046;38.838;2023-02-04T04:57:50;99720.19;;;2.93;67.05
68456;BME280;55437;55.046;38.838;2023-02-04T05:00:18;99713.44;;;2.98;67.43
68456;BME280;55437;55.046;38.838;2023-02-04T05:02:44;99722.69;;;3.07;67.18
68456;BME280;55437;55.046;38.838;2023-02-04T05:05:10;99715.03;;;3.22;66.99
68456;BME280;55437;55.046;38.838;2023-02-04T05:07:36;99718.34;;;3.32;66.52
68456;BME280;55437;55.046;38.838;2023-02-04T05:10:03;99712.41;;;3.37;66.30
68456;BME280;55437;55.046;38.838;2023-02-04T05:12:29;99727.63;;;3.39;66.16
68456;BME280;55437;55.046;38.838;2023-02-04T05:14:55;99719.13;;;3.46;65.92
68456;BME280;55437;55.046;38.838;2023-02-04T05:17:21;99725.00;;;3.51;66.01
68456;BME280;55437;55.046;38.838;2023-02-04T05:19:46;99725.06;;;3.46;65.65
68456;BME280;55437;55.046;38.838;2023-02-04T05:22:12;99725.06;;;3.46;65.89
68456;BME280;55437;55.046;38.838;2023-02-04T05:24:37;99736.06;;;3.45;65.84
68456;BME280;55437;55.046;38.838;2023-02-04T05:27:03;99734.38;;;3.44;65.99
68456;BME280;55437;55.046;38.838;2023-02-04T05:29:29;99742.84;;;3.40;65.93
68456;BME280;55437;55.046;38.838;2023-02-04T05:31:54;99743.69;;;3.41;65.93
68456;BME280;55437;55.046;38.838;2023-02-04T05:34:20;99744.53;;;3.44;66.09
68456;BME280;55437;55.046;38.838;2023-02-04T05:36:46;99747.84;;;3.55;65.83
68456;BME280;55437;55.046;38.838;2023-02-04T05:39:11;99749.59;;;3.47;65.79
68456;BME280;55437;55.046;38.838;2023-02-04T05:41:37;99750.44;;;3.49;65.75
68456;BME280;55437;55.046;38.838;2023-02-04T05:44:04;99757.16;;;3.55;65.79
68456;BME280;55437;55.046;38.838;2023-02-04T05:46:32;99747.78;;;3.65;65.43
68456;BME280;55437;55.046;38.838;2023-02-04T05:48:57;99754.50;;;3.76;65.07
68456;BME280;55437;55.046;38.838;2023-02-04T05:51:23;99759.56;;;3.76;65.08
68456;BME280;55437;55.046;38.838;2023-02-04T05:53:49;99756.19;;;3.76;65.08
68456;BME280;55437;55.046;38.838;2023-02-04T05:56:14;99765.50;;;3.77;65.15
68456;BME280;55437;55.046;38.838;2023-02-04T05:58:40;99768.88;;;3.83;65.04
68456;BME280;55437;55.046;38.838;2023-02-04T06:01:06;99772.25;;;3.84;64.65
68456;BME280;55437;55.046;38.838;2023-02-04T06:03:31;99770.50;;;3.87;64.98
68456;BME280;55437;55.046;38.838;2023-02-04T06:06:00;99773.94;;;3.85;64.88
68456;BME280;55437;55.046;38.838;2023-02-04T06:08:25;99773.88;;;3.94;64.72
68456;BME280;55437;55.046;38.838;2023-02-04T06:10:53;99772.94;;;4.04;64.56
68456;BME280;55437;55.046;38.838;2023-02-04T06:13:19;99776.25;;;4.15;64.37
68456;BME280;55437;55.046;38.838;2023-02-04T06:15:45;99783.88;;;4.14;64.03
68456;BME280;55437;55.046;38.838;2023-02-04T06:18:11;99782.19;;;4.13;64.19
68456;BME280;55437;55.046;38.838;2023-02-04T06:20:37;99785.56;;;4.16;63.96
68456;BME280;55437;55.046;38.838;2023-02-04T06:23:03;99792.34;;;4.16;64.07
68456;BME280;55437;55.046;38.838;2023-02-04T06:25:28;99788.09;;;4.22;63.72
68456;BME280;55437;55.046;38.838;2023-02-04T06:27:54;99793.91;;;4.35;63.75
68456;BME280;55437;55.046;38.838;2023-02-04T06:30:20;99787.09;;;4.42;63.47
68456;BME280;55437;55.046;38.838;2023-02-04T06:32:45;99797.34;;;4.31;63.30
68456;BME280;55437;55.046;38.838;2023-02-04T06:35:11;99802.53;;;4.14;64.02
68456;BME280;55437;55.046;38.838;2023-02-04T06:37:38;99804.22;;;4.14;64.21
68456;BME280;55437;55.046;38.838;2023-02-04T06:40:07;99807.66;;;4.08;64.53
68456;BME280;55437;55.046;38.838;2023-02-04T06:42:33;99800.06;;;3.99;64.39
68456;BME280;55437;55.046;38.838;2023-02-04T06:44:59;99801.75;;;4.06;64.22
68456;BME280;55437;55.046;38.838;2023-02-04T06:47:24;99800.81;;;4.15;64.29
68456;BME280;55437;55.046;38.838;2023-02-04T06:49:50;99802.50;;;4.22;63.85
68456;BME280;55437;55.046;38.838;2023-02-04T06:52:18;99806.66;;;4.32;63.77
68456;BME280;55437;55.046;38.838;2023-02-04T06:54:44;99810.88;;;4.34;63.40
68456;BME280;55437;55.046;38.838;2023-02-04T06:57:09;99811.72;;;4.33;63.52
68456;BME280;55437;55.046;38.838;2023-02-04T06:59:38;99815.91;;;4.41;63.40
68456;BME280;55437;55.046;38.838;2023-02-04T07:02:06;99813.38;;;4.39;63.50
68456;BME280;55437;55.046;38.838;2023-02-04T07:04:33;99812.50;;;4.43;63.34
68456;BME280;55437;55.046;38.838;2023-02-04T07:06:59;99818.34;;;4.51;63.31
68456;BME280;55437;55.046;38.838;2023-02-04T07:09:25;99823.44;;;4.53;63.07
68456;BME280;55437;55.046;38.838;2023-02-04T07:11:51;99826.81;;;4.52;63.32
68456;BME280;55437;55.046;38.838;2023-02-04T07:14:19;99824.25;;;4.58;63.32
68456;BME280;55437;55.046;38.838;2023-02-04T07:16:44;99830.97;;;4.66;63.05
68456;BME280;55437;55.046;38.838;2023-02-04T07:19:10;99830.00;;;4.77;62.72
68456;BME280;55437;55.046;38.838;2023-02-04T07:21:36;99829.16;;;4.81;62.76
68456;BME280;55437;55.046;38.838;2023-02-04T07:24:01;99834.28;;;4.73;62.81
68456;BME280;55437;55.046;38.838;2023-02-04T07:26:27;99841.03;;;4.77;62.90
68456;BME280;55437;55.046;38.838;2023-02-04T07:28:53;99839.25;;;4.88;62.84
68456;BME280;55437;55.046;38.838;2023-02-04T07:31:18;99835.75;;;4.97;62.41
68456;BME280;55437;55.046;38.838;2023-02-04T07:33:47;99836.63;;;4.96;62.42
68456;BME280;55437;55.046;38.838;2023-02-04T07:36:13;99838.38;;;4.91;62.22
68456;BME280;55437;55.046;38.838;2023-02-04T07:38:38;99848.56;;;4.88;62.13
68456;BME280;55437;55.046;38.838;2023-02-04T07:41:06;99838.41;;;4.88;62.37
68456;BME280;55437;55.046;38.838;2023-02-04T07:43:32;99836.72;;;4.85;62.21
68456;BME280;55437;55.046;38.838;2023-02-04T07:45:57;99850.25;;;4.90;62.16
68456;BME280;55437;55.046;38.838;2023-02-04T07:48:23;99850.28;;;4.86;62.29
68456;BME280;55437;55.046;38.838;2023-02-04T07:50:49;99848.69;;;4.72;62.55
68456;BME280;55437;55.046;38.838;2023-02-04T07:53:18;99849.63;;;4.59;62.80
68456;BME280;55437;55.046;38.838;2023-02-04T07:55:43;99853.88;;;4.60;63.09
68456;BME280;55437;55.046;38.838;2023-02-04T07:58:09;99859.75;;;4.68;62.67
68456;BME280;55437;55.046;38.838;2023-02-04T08:00:35;99853.78;;;4.71;62.83
68456;BME280;55437;55.046;38.838;2023-02-04T08:03:00;99864.69;;;4.85;62.45
68456;BME280;55437;55.046;38.838;2023-02-04T08:05:26;99866.28;;;5.00;62.19
68456;BME280;55437;55.046;38.838;2023-02-04T08:07:51;99865.44;;;4.98;61.94
68456;BME280;55437;55.046;38.838;2023-02-04T08:10:17;99867.09;;;5.02;61.63
68456;BME280;55437;55.046;38.838;2023-02-04T08:12:46;99868.78;;;5.03;61.53
68456;BME280;55437;55.046;38.838;2023-02-04T08:15:11;99867.84;;;5.12;61.38
68456;BME280;55437;55.046;38.838;2023-02-04T08:17:37;99865.44;;;4.98;61.43
68456;BME280;55437;55.046;38.838;2023-02-04T08:20:03;99867.09;;;5.05;61.17
68456;BME280;55437;55.046;38.838;2023-02-04T08:22:28;99867.84;;;5.13;60.83
68456;BME280;55437;55.046;38.838;2023-02-04T08:24:54;99878.88;;;5.12;60.93
68456;BME280;55437;55.046;38.838;2023-02-04T08:27:20;99874.63;;;5.13;60.84
68456;BME280;55437;55.046;38.838;2023-02-04T08:29:45;99874.72;;;5.06;61.15
68456;BME280;55437;55.046;38.838;2023-02-04T08:32:11;99873.81;;;5.07;61.00
68456;BME280;55437;55.046;38.838;2023-02-04T08:34:38;99881.41;;;5.14;61.09
68456;BME280;55437;55.046;38.838;2023-02-04T08:37:04;99882.22;;;5.19;60.84
68456;BME280;55437;55.046;38.838;2023-02-04T08:39:29;99884.78;;;5.19;61.02
68456;BME280;55437;55.046;38.838;2023-02-04T08:41:55;99886.50;;;5.14;60.98
68456;BME280;55437;55.046;38.838;2023-02-04T08:44:21;99886.59;;;5.03;61.09
68456;BME280;55437;55.046;38.838;2023-02-04T08:46:46;99882.59;;;4.75;61.60
68456;BME280;55437;55.046;38.838;2023-02-04T08:49:14;99889.38;;;4.77;61.84
68456;BME280;55437;55.046;38.838;2023-02-04T08:51:40;99890.28;;;4.65;61.91
68456;BME280;55437;55.046;38.838;2023-02-04T08:54:05;99884.38;;;4.62;62.11
68456;BME280;55437;55.046;38.838;2023-02-04T08:56:31;99885.22;;;4.61;62.42
68456;BME280;55437;55.046;38.838;2023-02-04T08:58:57;99889.41;;;4.71;62.46
68456;BME280;55437;55.046;38.838;2023-02-04T09:01:22;99885.91;;;4.84;61.98
68456;BME280;55437;55.046;38.838;2023-02-04T09:03:48;99895.19;;;4.90;62.03
68456;BME280;55437;55.046;38.838;2023-02-04T09:06:14;99899.38;;;4.97;62.09
68456;BME280;55437;55.046;38.838;2023-02-04T09:08:40;99896.78;;;5.06;61.98
68456;BME280;55437;55.046;38.838;2023-02-04T09:11:07;99900.09;;;5.13;62.25
68456;BME280;55437;55.046;38.838;2023-02-04T09:13:35;99908.66;;;5.04;62.61
68456;BME280;55437;55.046;38.838;2023-02-04T09:16:00;99901.06;;;4.96;62.61
68456;BME280;55437;55.046;38.838;2023-02-04T09:18:26;99902.75;;;4.96;62.94
68456;BME280;55437;55.046;38.838;2023-02-04T09:20:52;99897.69;;;4.96;63.05
68456;BME280;55437;55.046;38.838;2023-02-04T09:23:18;99902.81;;;4.91;63.22
68456;BME280;55437;55.046;38.838;2023-02-04T09:25:44;99904.56;;;4.85;63.32
68456;BME280;55437;55.046;38.838;2023-02-04T09:28:11;99908.84;;;4.80;63.70
68456;BME280;55437;55.046;38.838;2023-02-04T09:30:38;99903.84;;;4.69;63.89
68456;BME280;55437;55.046;38.838;2023-02-04T09:33:05;99909.94;;;4.47;64.47
68456;BME280;55437;55.046;38.838;2023-02-04T09:35:32;99915.09;;;4.33;65.14
68456;BME280;55437;55.046;38.838;2023-02-04T09:37:58;99914.13;;;4.49;64.70
68456;BME280;55437;55.046;38.838;2023-02-04T09:40:25;99914.91;;;4.60;64.46
68456;BME280;55437;55.046;38.838;2023-02-04T09:42:53;99920.91;;;4.49;64.83
68456;BME280;55437;55.046;38.838;2023-02-04T09:45:25;99923.53;;;4.35;64.88
68456;BME280;55437;55.046;38.838;2023-02-04T09:47:53;99918.44;;;4.41;64.83
68456;BME280;55437;55.046;38.838;2023-02-04T09:50:21;99919.25;;;4.45;64.89
68456;BME280;55437;55.046;38.838;2023-02-04T09:52:50;99918.38;;;4.49;64.92
68456;BME280;55437;55.046;38.838;2023-02-04T09:55:18;99929.47;;;4.35;65.18
68456;BME280;55437;55.046;38.838;2023-02-04T09:57:46;99921.81;;;4.37;65.15
68456;BME280;55437;55.046;38.838;2023-02-04T10:00:18;99927.75;;;4.44;64.93
68456;BME280;55437;55.046;38.838;2023-02-04T10:02:45;99927.66;;;4.54;64.73
68456;BME280;55437;55.046;38.838;2023-02-04T10:05:37;99931.91;;;4.54;64.68
68456;BME280;55437;55.046;38.838;2023-02-04T10:08:04;99944.72;;;4.35;65.00
68456;BME280;55437;55.046;38.838;2023-02-04T10:10:30;99937.97;;;4.25;65.30
68456;BME280;55437;55.046;38.838;2023-02-04T10:12:58;99940.56;;;4.22;65.36
68456;BME280;55437;55.046;38.838;2023-02-04T10:15:25;99940.47;;;4.41;64.93
68456;BME280;55437;55.046;38.838;2023-02-04T10:18:05;99945.47;;;4.53;64.39
68456;BME280;55437;55.046;38.838;2023-02-04T10:20:31;99949.66;;;4.60;64.28
68456;BME280;55437;55.046;38.838;2023-02-04T10:22:57;99949.66;;;4.63;64.23
68456;BME280;55437;55.046;38.838;2023-02-04T10:25:24;99953.97;;;4.49;64.52
68456;BME280;55437;55.046;38.838;2023-02-04T10:27:52;99951.47;;;4.43;64.75
68456;BME280;55437;55.046;38.838;2023-02-04T10:30:21;99958.25;;;4.41;64.69
68456;BME280;55437;55.046;38.838;2023-02-04T10:32:53;99959.09;;;4.40;64.87
68456;BME280;55437;55.046;38.838;2023-02-04T10:35:21;99965.09;;;4.31;64.74
68456;BME280;55437;55.046;38.838;2023-02-04T10:38:00;99962.53;;;4.32;64.85
68456;BME280;55437;55.046;38.838;2023-02-04T10:40:32;99968.44;;;4.38;64.69
68456;BME280;55437;55.046;38.838;2023-02-04T10:43:09;99966.66;;;4.50;64.30
68456;BME280;55437;55.046;38.838;2023-02-04T10:45:38;99966.72;;;4.46;64.65
68456;BME280;55437;55.046;38.838;2023-02-04T10:48:04;99965.88;;;4.45;64.50
68456;BME280;55437;55.046;38.838;2023-02-04T10:50:30;99964.97;;;4.55;64.45
68456;BME280;55437;55.046;38.838;2023-02-04T10:53:01;99963.22;;;4.60;64.24
68456;BME280;55437;55.046;38.838;2023-02-04T10:55:47;99962.34;;;4.66;64.31
68456;BME280;55437;55.046;38.838;2023-02-04T10:58:17;99969.13;;;4.70;64.20
68456;BME280;55437;55.046;38.838;2023-02-04T11:00:47;99970.00;;;4.61;64.51
68456;BME280;55437;55.046;38.838;2023-02-04T11:03:24;99975.09;;;4.60;64.38
68456;BME280;55437;55.046;38.838;2023-02-04T11:05:50;99975.94;;;4.60;64.88
68456;BME280;55437;55.046;38.838;2023-02-04T11:10:45;99976.78;;;4.64;64.92
68456;BME280;55437;55.046;38.838;2023-02-04T11:13:22;99979.28;;;4.70;64.60
68456;BME280;55437;55.046;38.838;2023-02-04T11:15:49;99974.06;;;4.87;64.46
68456;BME280;55437;55.046;38.838;2023-02-04T11:20:45;99974.91;;;4.89;64.27
68456;BME280;55437;55.046;38.838;2023-02-04T11:26:13;99983.38;;;4.91;64.54
68456;BME280;55437;55.046;38.838;2023-02-04T11:37:14;99992.72;;;4.93;64.38
68456;BME280;55437;55.046;38.838;2023-02-04T11:39:48;99984.25;;;4.85;64.31
68456;BME280;55437;55.046;38.838;2023-02-04T11:42:37;99988.47;;;4.91;64.65
68456;BME280;55437;55.046;38.838;2023-02-04T11:45:15;99983.28;;;5.06;64.38
68456;BME280;55437;55.046;38.838;2023-02-04T11:47:42;99989.19;;;5.10;64.14
68456;BME280;55437;55.046;38.838;2023-02-04T11:50:23;99994.41;;;4.91;64.51
68456;BME280;55437;55.046;38.838;2023-02-04T11:52:50;100002.16;;;4.71;65.09
68456;BME280;55437;55.046;38.838;2023-02-04T11:55:18;99997.91;;;4.74;65.34
68456;BME280;55437;55.046;38.838;2023-02-04T11:57:44;100002.91;;;4.90;65.00
68456;BME280;55437;55.046;38.838;2023-02-04T12:00:19;100008.75;;;5.01;64.58
68456;BME280;55437;55.046;38.838;2023-02-04T12:02:56;100003.56;;;5.15;64.13
68456;BME280;55437;55.046;38.838;2023-02-04T12:05:35;100016.25;;;5.20;63.96
68456;BME280;55437;55.046;38.838;2023-02-04T12:08:21;100010.44;;;5.05;63.96
68456;BME280;55437;55.046;38.838;2023-02-04T12:11:01;100027.44;;;4.99;64.37
68456;BME280;55437;55.046;38.838;2023-02-04T12:13:27;100030.88;;;4.95;64.40
68456;BME280;55437;55.046;38.838;2023-02-04T12:16:05;100024.16;;;4.82;64.55
68456;BME280;55437;55.046;38.838;2023-02-04T12:18:33;100024.97;;;4.87;64.76
68456;BME280;55437;55.046;38.838;2023-02-04T12:21:00;100028.28;;;5.01;64.47
68456;BME280;55437;55.046;38.838;2023-02-04T12:23:28;100032.50;;;5.00;64.36
68456;BME280;55437;55.046;38.838;2023-02-04T12:25:57;100039.34;;;4.92;64.37
68456;BME280;55437;55.046;38.838;2023-02-04T12:28:23;100047.78;;;4.96;64.66
68456;BME280;55437;55.046;38.838;2023-02-04T12:30:49;100040.97;;;5.04;64.54
68456;BME280;55437;55.046;38.838;2023-02-04T12:33:15;100043.47;;;5.10;64.26
68456;BME280;55437;55.046;38.838;2023-02-04T12:35:41;100040.06;;;5.14;64.00
68456;BME280;55437;55.046;38.838;2023-02-04T12:38:10;100049.47;;;5.03;64.31
68456;BME280;55437;55.046;38.838;2023-02-04T12:40:36;100052.88;;;5.00;64.70
68456;BME280;55437;55.046;38.838;2023-02-04T12:43:05;100062.19;;;5.01;64.57
68456;BME280;55437;55.046;38.838;2023-02-04T12:45:31;100053.72;;;5.01;64.68
68456;BME280;55437;55.046;38.838;2023-02-04T12:47:58;100058.03;;;4.91;64.79
68456;BME280;55437;55.046;38.838;2023-02-04T12:50:23;100064.78;;;4.94;64.66
68456;BME280;55437;55.046;38.838;2023-02-04T12:52:51;100064.72;;;5.04;64.62
68456;BME280;55437;55.046;38.838;2023-02-04T12:55:17;100067.28;;;5.01;64.59
68456;BME280;55437;55.046;38.838;2023-02-04T12:57:43;100079.22;;;4.90;64.75
68456;BME280;55437;55.046;38.838;2023-02-04T13:00:13;100066.56;;;4.81;64.91
68456;BME280;55437;55.046;38.838;2023-02-04T13:02:39;100072.53;;;4.69;65.24
68456;BME280;55437;55.046;38.838;2023-02-04T13:05:05;100070.91;;;4.50;65.64
68456;BME280;55437;55.046;38.838;2023-02-04T13:07:32;100082.78;;;4.50;66.02
68456;BME280;55437;55.046;38.838;2023-02-04T13:09:58;100081.13;;;4.40;66.11
68456;BME280;55437;55.046;38.838;2023-02-04T13:12:25;100081.97;;;4.45;66.18
68456;BME280;55437;55.046;38.838;2023-02-04T13:14:51;100084.47;;;4.51;66.20
68456;BME280;55437;55.046;38.838;2023-02-04T13:17:19;100087.00;;;4.51;65.91
68456;BME280;55437;55.046;38.838;2023-02-04T13:19:44;100085.31;;;4.53;65.91
68456;BME280;55437;55.046;38.838;2023-02-04T13:22:10;100086.97;;;4.63;65.79
68456;BME280;55437;55.046;38.838;2023-02-04T13:24:36;100089.56;;;4.51;66.18